sensor_id;sensor_type;location;lat;lon;timestamp;P1;durP1;ratioP1;P2;durP2;ratioP2
14121;SDS011;7139;48.114;11.442;2023-04-03T00:00:46;9.47;;;8.47;;
14121;SDS011;7139;48.114;11.442;2023-04-03T00:03:14;9.30;;;8.40;;
14121;SDS011;7139;48.114;11.442;2023-04-03T00:05:41;9.40;;;8.47;;
14121;SDS011;7139;48.114;11.442;2023-04-03T00:08:09;8.83;;;7.97;;
14121;SDS011;7139;48.114;11.442;2023-04-03T00:10:37;9.03;;;7.73;;
14121;SDS011;7139;48.114;11.442;2023-04-03T00:13:05;8.60;;;7.70;;
14121;SDS011;7139;48.114;11.442;2023-04-03T00:15:33;8.87;;;7.93;;
14121;SDS011;7139;48.114;11.442;2023-04-03T00:18:01;10.73;;;8.53;;
14121;SDS011;7139;48.114;11.442;2023-04-03T00:20:28;9.13;;;8.23;;
14121;SDS011;7139;48.114;11.442;2023-04-03T00:22:55;9.40;;;8.50;;
14121;SDS011;7139;48.114;11.442;2023-04-03T00:25:23;9.13;;;8.23;;
14121;SDS011;7139;48.114;11.442;2023-04-03T00:27:50;9.77;;;8.73;;
14121;SDS011;7139;48.114;11.442;2023-04-03T00:30:17;9.83;;;8.87;;
14121;SDS011;7139;48.114;11.442;2023-04-03T00:32:46;9.03;;;8.13;;
14121;SDS011;7139;48.114;11.442;2023-04-03T00:35:13;9.33;;;7.53;;
14121;SDS011;7139;48.114;11.442;2023-04-03T00:37:40;8.50;;;7.60;;
14121;SDS011;7139;48.114;11.442;2023-04-03T00:40:08;8.93;;;7.70;;
14121;SDS011;7139;48.114;11.442;2023-04-03T00:42:37;8.73;;;7.63;;
14121;SDS011;7139;48.114;11.442;2023-04-03T00:45:22;9.13;;;8.20;;
14121;SDS011;7139;48.114;11.442;2023-04-03T00:47:51;8.20;;;7.20;;
14121;SDS011;7139;48.114;11.442;2023-04-03T00:50:18;8.47;;;7.07;;
14121;SDS011;7139;48.114;11.442;2023-04-03T00:52:46;7.50;;;6.80;;
14121;SDS011;7139;48.114;11.442;2023-04-03T00:55:14;8.03;;;7.23;;
14121;SDS011;7139;48.114;11.442;2023-04-03T00:57:42;7.90;;;6.80;;
14121;SDS011;7139;48.114;11.442;2023-04-03T01:00:12;9.37;;;7.60;;
14121;SDS011;7139;48.114;11.442;2023-04-03T01:02:42;8.03;;;7.23;;
14121;SDS011;7139;48.114;11.442;2023-04-03T01:05:08;8.37;;;7.63;;
14121;SDS011;7139;48.114;11.442;2023-04-03T01:07:36;7.90;;;6.87;;
14121;SDS011;7139;48.114;11.442;2023-04-03T01:10:04;8.60;;;7.43;;
14121;SDS011;7139;48.114;11.442;2023-04-03T01:12:34;8.10;;;7.30;;
14121;SDS011;7139;48.114;11.442;2023-04-03T01:15:03;8.00;;;7.20;;
14121;SDS011;7139;48.114;11.442;2023-04-03T01:17:34;7.63;;;6.87;;
14121;SDS011;7139;48.114;11.442;2023-04-03T01:20:13;8.23;;;7.37;;
14121;SDS011;7139;48.114;11.442;2023-04-03T01:23:28;7.97;;;7.17;;
14121;SDS011;7139;48.114;11.442;2023-04-03T01:26:10;7.20;;;6.50;;
14121;SDS011;7139;48.114;11.442;2023-04-03T01:28:37;7.30;;;6.60;;
14121;SDS011;7139;48.114;11.442;2023-04-03T01:31:09;8.03;;;7.23;;
14121;SDS011;7139;48.114;11.442;2023-04-03T01:33:42;8.17;;;6.93;;
14121;SDS011;7139;48.114;11.442;2023-04-03T01:36:14;7.53;;;6.40;;
14121;SDS011;7139;48.114;11.442;2023-04-03T01:38:42;7.87;;;7.07;;
14121;SDS011;7139;48.114;11.442;2023-04-03T01:41:09;8.60;;;7.70;;
14121;SDS011;7139;48.114;11.442;2023-04-03T01:43:36;7.80;;;7.00;;
14121;SDS011;7139;48.114;11.442;2023-04-03T01:46:02;7.93;;;7.10;;
14121;SDS011;7139;48.114;11.442;2023-04-03T01:48:29;7.67;;;6.97;;
14121;SDS011;7139;48.114;11.442;2023-04-03T01:50:57;8.20;;;7.43;;
14121;SDS011;7139;48.114;11.442;2023-04-03T01:53:24;8.20;;;7.40;;
14121;SDS011;7139;48.114;11.442;2023-04-03T01:55:51;7.47;;;6.77;;
14121;SDS011;7139;48.114;11.442;2023-04-03T01:58:18;8.37;;;6.97;;
14121;SDS011;7139;48.114;11.442;2023-04-03T02:00:44;8.37;;;7.37;;
14121;SDS011;7139;48.114;11.442;2023-04-03T02:03:11;9.00;;;7.30;;
14121;SDS011;7139;48.114;11.442;2023-04-03T02:05:38;6.87;;;6.20;;
14121;SDS011;7139;48.114;11.442;2023-04-03T02:08:07;7.77;;;6.47;;
14121;SDS011;7139;48.114;11.442;2023-04-03T02:10:33;7.07;;;6.40;;
14121;SDS011;7139;48.114;11.442;2023-04-03T02:13:00;7.23;;;6.53;;
14121;SDS011;7139;48.114;11.442;2023-04-03T02:15:27;7.07;;;6.47;;
14121;SDS011;7139;48.114;11.442;2023-04-03T02:17:54;7.97;;;7.07;;
14121;SDS011;7139;48.114;11.442;2023-04-03T02:20:21;8.10;;;7.10;;
14121;SDS011;7139;48.114;11.442;2023-04-03T02:22:47;7.07;;;6.37;;
14121;SDS011;7139;48.114;11.442;2023-04-03T02:25:16;7.47;;;6.77;;
14121;SDS011;7139;48.114;11.442;2023-04-03T02:27:43;8.07;;;7.17;;
14121;SDS011;7139;48.114;11.442;2023-04-03T02:30:10;8.30;;;7.20;;
14121;SDS011;7139;48.114;11.442;2023-04-03T02:32:39;7.57;;;6.87;;
14121;SDS011;7139;48.114;11.442;2023-04-03T02:35:07;7.23;;;6.53;;
14121;SDS011;7139;48.114;11.442;2023-04-03T02:37:34;7.00;;;6.30;;
14121;SDS011;7139;48.114;11.442;2023-04-03T02:40:01;6.97;;;6.27;;
14121;SDS011;7139;48.114;11.442;2023-04-03T02:42:30;7.50;;;6.70;;
14121;SDS011;7139;48.114;11.442;2023-04-03T02:44:56;7.00;;;6.20;;
14121;SDS011;7139;48.114;11.442;2023-04-03T02:47:25;7.37;;;6.57;;
14121;SDS011;7139;48.114;11.442;2023-04-03T02:49:52;6.57;;;5.97;;
14121;SDS011;7139;48.114;11.442;2023-04-03T02:52:19;6.97;;;6.27;;
14121;SDS011;7139;48.114;11.442;2023-04-03T02:54:46;7.27;;;6.10;;
14121;SDS011;7139;48.114;11.442;2023-04-03T02:57:13;6.67;;;6.07;;
14121;SDS011;7139;48.114;11.442;2023-04-03T02:59:41;7.70;;;6.37;;
14121;SDS011;7139;48.114;11.442;2023-04-03T03:02:09;7.53;;;6.00;;
14121;SDS011;7139;48.114;11.442;2023-04-03T03:04:36;6.30;;;5.70;;
14121;SDS011;7139;48.114;11.442;2023-04-03T03:07:02;6.57;;;5.97;;
14121;SDS011;7139;48.114;11.442;2023-04-03T03:09:29;7.50;;;6.70;;
14121;SDS011;7139;48.114;11.442;2023-04-03T03:11:56;6.00;;;5.50;;
14121;SDS011;7139;48.114;11.442;2023-04-03T03:14:23;6.40;;;5.80;;
14121;SDS011;7139;48.114;11.442;2023-04-03T03:16:51;6.73;;;6.07;;
14121;SDS011;7139;48.114;11.442;2023-04-03T03:19:18;6.10;;;5.50;;
14121;SDS011;7139;48.114;11.442;2023-04-03T03:21:45;6.67;;;5.97;;
14121;SDS011;7139;48.114;11.442;2023-04-03T03:24:12;6.57;;;5.87;;
14121;SDS011;7139;48.114;11.442;2023-04-03T03:26:38;6.17;;;5.57;;
14121;SDS011;7139;48.114;11.442;2023-04-03T03:29:05;5.77;;;5.20;;
14121;SDS011;7139;48.114;11.442;2023-04-03T03:31:32;5.67;;;5.00;;
14121;SDS011;7139;48.114;11.442;2023-04-03T03:34:00;7.20;;;5.63;;
14121;SDS011;7139;48.114;11.442;2023-04-03T03:36:27;6.00;;;5.17;;
14121;SDS011;7139;48.114;11.442;2023-04-03T03:38:53;5.07;;;4.57;;
14121;SDS011;7139;48.114;11.442;2023-04-03T03:41:20;5.37;;;4.63;;
14121;SDS011;7139;48.114;11.442;2023-04-03T03:43:47;5.77;;;5.17;;
14121;SDS011;7139;48.114;11.442;2023-04-03T03:46:13;5.03;;;4.30;;
14121;SDS011;7139;48.114;11.442;2023-04-03T03:48:40;4.90;;;4.50;;
14121;SDS011;7139;48.114;11.442;2023-04-03T03:51:08;6.27;;;4.53;;
14121;SDS011;7139;48.114;11.442;2023-04-03T03:53:35;4.80;;;4.40;;
14121;SDS011;7139;48.114;11.442;2023-04-03T03:56:02;5.07;;;4.57;;
14121;SDS011;7139;48.114;11.442;2023-04-03T03:58:29;5.40;;;4.90;;
14121;SDS011;7139;48.114;11.442;2023-04-03T04:00:57;6.73;;;5.13;;
14121;SDS011;7139;48.114;11.442;2023-04-03T04:03:26;5.27;;;4.60;;
14121;SDS011;7139;48.114;11.442;2023-04-03T04:05:53;5.00;;;4.50;;
14121;SDS011;7139;48.114;11.442;2023-04-03T04:08:21;6.47;;;4.60;;
14121;SDS011;7139;48.114;11.442;2023-04-03T04:10:48;5.33;;;4.40;;
14121;SDS011;7139;48.114;11.442;2023-04-03T04:13:15;5.10;;;4.60;;
14121;SDS011;7139;48.114;11.442;2023-04-03T04:15:42;4.70;;;4.30;;
14121;SDS011;7139;48.114;11.442;2023-04-03T04:18:09;5.50;;;4.60;;
14121;SDS011;7139;48.114;11.442;2023-04-03T04:20:36;5.20;;;4.70;;
14121;SDS011;7139;48.114;11.442;2023-04-03T04:23:02;5.00;;;4.60;;
14121;SDS011;7139;48.114;11.442;2023-04-03T04:25:31;5.30;;;4.77;;
14121;SDS011;7139;48.114;11.442;2023-04-03T04:27:57;5.03;;;4.53;;
14121;SDS011;7139;48.114;11.442;2023-04-03T04:30:24;5.20;;;4.70;;
14121;SDS011;7139;48.114;11.442;2023-04-03T04:32:52;5.70;;;4.80;;
14121;SDS011;7139;48.114;11.442;2023-04-03T04:35:19;5.77;;;5.27;;
14121;SDS011;7139;48.114;11.442;2023-04-03T04:37:46;5.33;;;4.30;;
14121;SDS011;7139;48.114;11.442;2023-04-03T04:40:12;5.00;;;4.60;;
14121;SDS011;7139;48.114;11.442;2023-04-03T04:42:41;5.70;;;4.90;;
14121;SDS011;7139;48.114;11.442;2023-04-03T04:45:07;6.33;;;5.10;;
14121;SDS011;7139;48.114;11.442;2023-04-03T04:47:35;5.30;;;4.60;;
14121;SDS011;7139;48.114;11.442;2023-04-03T04:50:01;5.53;;;4.50;;
14121;SDS011;7139;48.114;11.442;2023-04-03T04:52:29;4.60;;;4.20;;
14121;SDS011;7139;48.114;11.442;2023-04-03T04:54:55;4.30;;;3.90;;
14121;SDS011;7139;48.114;11.442;2023-04-03T04:57:22;4.70;;;3.97;;
14121;SDS011;7139;48.114;11.442;2023-04-03T04:59:51;5.00;;;4.50;;
14121;SDS011;7139;48.114;11.442;2023-04-03T05:02:17;5.80;;;4.80;;
14121;SDS011;7139;48.114;11.442;2023-04-03T05:04:44;4.70;;;4.20;;
14121;SDS011;7139;48.114;11.442;2023-04-03T05:07:11;4.47;;;4.00;;
14121;SDS011;7139;48.114;11.442;2023-04-03T05:09:38;5.47;;;4.47;;
14121;SDS011;7139;48.114;11.442;2023-04-03T05:12:07;5.20;;;4.70;;
14121;SDS011;7139;48.114;11.442;2023-04-03T05:14:33;6.00;;;5.20;;
14121;SDS011;7139;48.114;11.442;2023-04-03T05:17:02;5.13;;;4.73;;
14121;SDS011;7139;48.114;11.442;2023-04-03T05:19:28;5.10;;;4.60;;
14121;SDS011;7139;48.114;11.442;2023-04-03T05:21:55;5.63;;;5.13;;
14121;SDS011;7139;48.114;11.442;2023-04-03T05:24:22;4.87;;;4.37;;
14121;SDS011;7139;48.114;11.442;2023-04-03T05:26:48;4.97;;;4.50;;
14121;SDS011;7139;48.114;11.442;2023-04-03T05:29:15;5.20;;;4.70;;
14121;SDS011;7139;48.114;11.442;2023-04-03T05:31:42;5.57;;;4.97;;
14121;SDS011;7139;48.114;11.442;2023-04-03T05:34:10;5.03;;;4.57;;
14121;SDS011;7139;48.114;11.442;2023-04-03T05:36:37;5.07;;;4.67;;
14121;SDS011;7139;48.114;11.442;2023-04-03T05:39:03;5.50;;;5.00;;
14121;SDS011;7139;48.114;11.442;2023-04-03T05:41:30;5.60;;;4.30;;
14121;SDS011;7139;48.114;11.442;2023-04-03T05:43:57;4.60;;;4.20;;
14121;SDS011;7139;48.114;11.442;2023-04-03T05:46:24;7.50;;;4.53;;
14121;SDS011;7139;48.114;11.442;2023-04-03T05:48:51;4.97;;;4.27;;
14121;SDS011;7139;48.114;11.442;2023-04-03T05:51:20;4.63;;;4.23;;
14121;SDS011;7139;48.114;11.442;2023-04-03T05:53:51;6.97;;;4.90;;
14121;SDS011;7139;48.114;11.442;2023-04-03T05:56:21;7.50;;;4.57;;
14121;SDS011;7139;48.114;11.442;2023-04-03T05:58:48;6.40;;;4.60;;
14121;SDS011;7139;48.114;11.442;2023-04-03T06:01:15;6.23;;;4.90;;
14121;SDS011;7139;48.114;11.442;2023-04-03T06:03:42;5.57;;;4.50;;
14121;SDS011;7139;48.114;11.442;2023-04-03T06:06:10;5.20;;;4.67;;
14121;SDS011;7139;48.114;11.442;2023-04-03T06:08:40;5.23;;;4.37;;
14121;SDS011;7139;48.114;11.442;2023-04-03T06:11:08;4.97;;;4.50;;
14121;SDS011;7139;48.114;11.442;2023-04-03T06:13:35;6.10;;;4.87;;
14121;SDS011;7139;48.114;11.442;2023-04-03T06:16:02;5.83;;;4.60;;
14121;SDS011;7139;48.114;11.442;2023-04-03T06:18:29;5.03;;;4.53;;
14121;SDS011;7139;48.114;11.442;2023-04-03T06:20:56;5.53;;;5.03;;
14121;SDS011;7139;48.114;11.442;2023-04-03T06:23:23;5.10;;;4.60;;
14121;SDS011;7139;48.114;11.442;2023-04-03T06:25:51;6.83;;;4.70;;
14121;SDS011;7139;48.114;11.442;2023-04-03T06:28:20;6.57;;;5.20;;
14121;SDS011;7139;48.114;11.442;2023-04-03T06:30:47;5.23;;;4.73;;
14121;SDS011;7139;48.114;11.442;2023-04-03T06:33:13;6.13;;;4.77;;
14121;SDS011;7139;48.114;11.442;2023-04-03T06:35:40;5.33;;;4.80;;
14121;SDS011;7139;48.114;11.442;2023-04-03T06:38:07;4.80;;;4.40;;
14121;SDS011;7139;48.114;11.442;2023-04-03T06:40:35;4.90;;;4.50;;
14121;SDS011;7139;48.114;11.442;2023-04-03T06:43:03;5.17;;;4.67;;
14121;SDS011;7139;48.114;11.442;2023-04-03T06:45:30;6.93;;;4.60;;
14121;SDS011;7139;48.114;11.442;2023-04-03T06:47:57;5.63;;;5.13;;
14121;SDS011;7139;48.114;11.442;2023-04-03T06:50:24;5.97;;;5.20;;
14121;SDS011;7139;48.114;11.442;2023-04-03T06:52:51;6.33;;;4.57;;
14121;SDS011;7139;48.114;11.442;2023-04-03T06:55:17;5.47;;;4.87;;
14121;SDS011;7139;48.114;11.442;2023-04-03T06:57:44;7.93;;;5.33;;
14121;SDS011;7139;48.114;11.442;2023-04-03T07:00:13;6.40;;;4.90;;
14121;SDS011;7139;48.114;11.442;2023-04-03T07:02:41;6.80;;;5.07;;
14121;SDS011;7139;48.114;11.442;2023-04-03T07:05:08;8.70;;;5.10;;
14121;SDS011;7139;48.114;11.442;2023-04-03T07:07:35;5.70;;;5.10;;
14121;SDS011;7139;48.114;11.442;2023-04-03T07:10:03;7.03;;;4.80;;
14121;SDS011;7139;48.114;11.442;2023-04-03T07:12:30;6.23;;;5.03;;
14121;SDS011;7139;48.114;11.442;2023-04-03T07:14:57;5.23;;;4.73;;
14121;SDS011;7139;48.114;11.442;2023-04-03T07:17:25;8.07;;;5.23;;
14121;SDS011;7139;48.114;11.442;2023-04-03T07:19:52;5.70;;;4.50;;
14121;SDS011;7139;48.114;11.442;2023-04-03T07:22:19;8.63;;;4.97;;
14121;SDS011;7139;48.114;11.442;2023-04-03T07:24:45;11.13;;;5.13;;
14121;SDS011;7139;48.114;11.442;2023-04-03T07:27:12;6.93;;;4.80;;
14121;SDS011;7139;48.114;11.442;2023-04-03T07:29:39;5.07;;;4.53;;
14121;SDS011;7139;48.114;11.442;2023-04-03T07:32:06;8.77;;;4.97;;
14121;SDS011;7139;48.114;11.442;2023-04-03T07:34:34;8.07;;;4.77;;
14121;SDS011;7139;48.114;11.442;2023-04-03T07:37:01;10.90;;;5.00;;
14121;SDS011;7139;48.114;11.442;2023-04-03T07:39:27;6.73;;;5.13;;
14121;SDS011;7139;48.114;11.442;2023-04-03T07:41:54;5.67;;;4.67;;
14121;SDS011;7139;48.114;11.442;2023-04-03T07:44:21;5.00;;;4.50;;
14121;SDS011;7139;48.114;11.442;2023-04-03T07:46:48;9.53;;;5.53;;
14121;SDS011;7139;48.114;11.442;2023-04-03T07:49:15;6.27;;;4.07;;
14121;SDS011;7139;48.114;11.442;2023-04-03T07:51:44;4.93;;;4.30;;
14121;SDS011;7139;48.114;11.442;2023-04-03T07:54:11;5.07;;;4.57;;
14121;SDS011;7139;48.114;11.442;2023-04-03T07:56:38;6.07;;;4.53;;
14121;SDS011;7139;48.114;11.442;2023-04-03T07:59:05;6.00;;;4.53;;
14121;SDS011;7139;48.114;11.442;2023-04-03T08:01:31;6.47;;;4.77;;
14121;SDS011;7139;48.114;11.442;2023-04-03T08:03:58;5.83;;;4.20;;
14121;SDS011;7139;48.114;11.442;2023-04-03T08:06:25;7.10;;;4.60;;
14121;SDS011;7139;48.114;11.442;2023-04-03T08:08:55;5.33;;;4.63;;
14121;SDS011;7139;48.114;11.442;2023-04-03T08:11:22;6.97;;;4.67;;
14121;SDS011;7139;48.114;11.442;2023-04-03T08:13:51;7.17;;;4.43;;
14121;SDS011;7139;48.114;11.442;2023-04-03T08:16:18;5.33;;;4.30;;
14121;SDS011;7139;48.114;11.442;2023-04-03T08:18:47;5.97;;;5.00;;
14121;SDS011;7139;48.114;11.442;2023-04-03T08:21:14;5.87;;;4.97;;
14121;SDS011;7139;48.114;11.442;2023-04-03T08:23:41;5.27;;;4.67;;
14121;SDS011;7139;48.114;11.442;2023-04-03T08:26:10;7.60;;;5.43;;
14121;SDS011;7139;48.114;11.442;2023-04-03T08:28:38;9.50;;;5.27;;
14121;SDS011;7139;48.114;11.442;2023-04-03T08:31:06;6.23;;;5.20;;
14121;SDS011;7139;48.114;11.442;2023-04-03T08:33:35;7.07;;;5.50;;
14121;SDS011;7139;48.114;11.442;2023-04-03T08:36:03;13.90;;;5.90;;
14121;SDS011;7139;48.114;11.442;2023-04-03T08:38:31;11.10;;;5.73;;
14121;SDS011;7139;48.114;11.442;2023-04-03T08:41:02;8.27;;;5.60;;
14121;SDS011;7139;48.114;11.442;2023-04-03T08:43:40;8.80;;;5.90;;
14121;SDS011;7139;48.114;11.442;2023-04-03T08:46:16;8.67;;;5.70;;
14121;SDS011;7139;48.114;11.442;2023-04-03T08:48:48;12.90;;;6.37;;
14121;SDS011;7139;48.114;11.442;2023-04-03T08:51:17;7.90;;;5.73;;
14121;SDS011;7139;48.114;11.442;2023-04-03T08:53:49;8.27;;;5.47;;
14121;SDS011;7139;48.114;11.442;2023-04-03T08:56:21;6.63;;;5.20;;
14121;SDS011;7139;48.114;11.442;2023-04-03T08:58:52;7.13;;;5.50;;
14121;SDS011;7139;48.114;11.442;2023-04-03T09:01:24;12.50;;;5.80;;
14121;SDS011;7139;48.114;11.442;2023-04-03T09:03:54;11.33;;;6.17;;
14121;SDS011;7139;48.114;11.442;2023-04-03T09:06:21;6.80;;;4.97;;
14121;SDS011;7139;48.114;11.442;2023-04-03T09:09:00;9.13;;;6.30;;
14121;SDS011;7139;48.114;11.442;2023-04-03T09:11:36;7.77;;;5.00;;
14121;SDS011;7139;48.114;11.442;2023-04-03T09:14:15;6.60;;;5.30;;
14121;SDS011;7139;48.114;11.442;2023-04-03T09:16:48;7.83;;;5.03;;
14121;SDS011;7139;48.114;11.442;2023-04-03T09:19:27;7.07;;;5.13;;
14121;SDS011;7139;48.114;11.442;2023-04-03T09:22:07;8.73;;;5.23;;
14121;SDS011;7139;48.114;11.442;2023-04-03T09:24:43;5.33;;;4.70;;
14121;SDS011;7139;48.114;11.442;2023-04-03T09:27:11;6.37;;;4.80;;
14121;SDS011;7139;48.114;11.442;2023-04-03T09:29:41;5.53;;;4.80;;
14121;SDS011;7139;48.114;11.442;2023-04-03T09:32:18;6.33;;;5.07;;
14121;SDS011;7139;48.114;11.442;2023-04-03T09:34:48;9.73;;;5.20;;
14121;SDS011;7139;48.114;11.442;2023-04-03T09:40:05;7.13;;;4.90;;
14121;SDS011;7139;48.114;11.442;2023-04-03T09:42:54;5.30;;;4.10;;
14121;SDS011;7139;48.114;11.442;2023-04-03T09:45:25;5.87;;;4.80;;
14121;SDS011;7139;48.114;11.442;2023-04-03T09:48:07;8.57;;;4.77;;
14121;SDS011;7139;48.114;11.442;2023-04-03T09:50:35;5.63;;;4.63;;
14121;SDS011;7139;48.114;11.442;2023-04-03T09:53:06;14.20;;;5.40;;
14121;SDS011;7139;48.114;11.442;2023-04-03T09:55:51;10.33;;;4.97;;
14121;SDS011;7139;48.114;11.442;2023-04-03T09:58:23;8.07;;;4.60;;
14121;SDS011;7139;48.114;11.442;2023-04-03T10:00:57;6.77;;;4.63;;
14121;SDS011;7139;48.114;11.442;2023-04-03T10:03:27;5.03;;;4.13;;
14121;SDS011;7139;48.114;11.442;2023-04-03T10:05:55;7.67;;;4.70;;
14121;SDS011;7139;48.114;11.442;2023-04-03T10:08:25;6.00;;;5.13;;
14121;SDS011;7139;48.114;11.442;2023-04-03T10:13:51;5.30;;;4.60;;
14121;SDS011;7139;48.114;11.442;2023-04-03T10:16:25;5.80;;;4.53;;
14121;SDS011;7139;48.114;11.442;2023-04-03T10:18:57;6.97;;;4.73;;
14121;SDS011;7139;48.114;11.442;2023-04-03T10:21:40;5.40;;;4.90;;
14121;SDS011;7139;48.114;11.442;2023-04-03T10:24:14;5.83;;;5.07;;
14121;SDS011;7139;48.114;11.442;2023-04-03T10:26:48;5.60;;;4.97;;
14121;SDS011;7139;48.114;11.442;2023-04-03T10:29:24;4.73;;;4.23;;
14121;SDS011;7139;48.114;11.442;2023-04-03T10:32:06;5.47;;;4.93;;
14121;SDS011;7139;48.114;11.442;2023-04-03T10:34:44;5.63;;;5.07;;
14121;SDS011;7139;48.114;11.442;2023-04-03T10:37:13;5.20;;;4.70;;
14121;SDS011;7139;48.114;11.442;2023-04-03T10:39:50;5.33;;;4.83;;
14121;SDS011;7139;48.114;11.442;2023-04-03T10:42:22;5.03;;;4.53;;
14121;SDS011;7139;48.114;11.442;2023-04-03T10:45:03;5.00;;;4.60;;
14121;SDS011;7139;48.114;11.442;2023-04-03T10:47:46;6.53;;;4.90;;
14121;SDS011;7139;48.114;11.442;2023-04-03T10:50:29;5.53;;;4.93;;
14121;SDS011;7139;48.114;11.442;2023-04-03T10:53:04;5.60;;;5.10;;
14121;SDS011;7139;48.114;11.442;2023-04-03T10:55:40;4.90;;;4.50;;
14121;SDS011;7139;48.114;11.442;2023-04-03T10:58:17;7.00;;;5.07;;
14121;SDS011;7139;48.114;11.442;2023-04-03T11:00:47;6.83;;;5.20;;
14121;SDS011;7139;48.114;11.442;2023-04-03T11:03:22;5.87;;;5.03;;
14121;SDS011;7139;48.114;11.442;2023-04-03T11:05:57;6.23;;;4.60;;
14121;SDS011;7139;48.114;11.442;2023-04-03T11:08:28;6.47;;;4.33;;
14121;SDS011;7139;48.114;11.442;2023-04-03T11:11:00;5.93;;;3.83;;
14121;SDS011;7139;48.114;11.442;2023-04-03T11:13:33;3.70;;;3.40;;
14121;SDS011;7139;48.114;11.442;2023-04-03T11:16:02;4.10;;;3.70;;
14121;SDS011;7139;48.114;11.442;2023-04-03T11:18:33;4.47;;;3.57;;
14121;SDS011;7139;48.114;11.442;2023-04-03T11:21:07;5.07;;;3.50;;
14121;SDS011;7139;48.114;11.442;2023-04-03T11:23:37;4.73;;;3.60;;
14121;SDS011;7139;48.114;11.442;2023-04-03T11:26:10;5.77;;;3.90;;
14121;SDS011;7139;48.114;11.442;2023-04-03T11:28:38;5.77;;;3.70;;
14121;SDS011;7139;48.114;11.442;2023-04-03T11:31:09;4.40;;;3.27;;
14121;SDS011;7139;48.114;11.442;2023-04-03T11:33:47;5.17;;;3.87;;
14121;SDS011;7139;48.114;11.442;2023-04-03T11:36:19;5.63;;;3.60;;
14121;SDS011;7139;48.114;11.442;2023-04-03T11:38:50;5.97;;;3.70;;
14121;SDS011;7139;48.114;11.442;2023-04-03T11:41:24;5.10;;;3.40;;
14121;SDS011;7139;48.114;11.442;2023-04-03T11:43:57;4.17;;;3.37;;
14121;SDS011;7139;48.114;11.442;2023-04-03T11:58:21;3.77;;;3.30;;
14121;SDS011;7139;48.114;11.442;2023-04-03T12:00:53;3.70;;;3.10;;
14121;SDS011;7139;48.114;11.442;2023-04-03T12:12:41;5.23;;;3.00;;
14121;SDS011;7139;48.114;11.442;2023-04-03T12:15:24;7.47;;;3.10;;
14121;SDS011;7139;48.114;11.442;2023-04-03T12:21:15;4.83;;;3.47;;
14121;SDS011;7139;48.114;11.442;2023-04-03T12:27:01;8.47;;;3.27;;
14121;SDS011;7139;48.114;11.442;2023-04-03T12:29:32;4.53;;;2.87;;
14121;SDS011;7139;48.114;11.442;2023-04-03T12:32:06;2.73;;;2.53;;
14121;SDS011;7139;48.114;11.442;2023-04-03T12:34:49;3.97;;;2.43;;
14121;SDS011;7139;48.114;11.442;2023-04-03T12:37:39;4.53;;;2.40;;
14121;SDS011;7139;48.114;11.442;2023-04-03T12:40:20;10.03;;;2.97;;
14121;SDS011;7139;48.114;11.442;2023-04-03T12:45:56;4.13;;;2.60;;
14121;SDS011;7139;48.114;11.442;2023-04-03T12:48:29;6.80;;;3.10;;
14121;SDS011;7139;48.114;11.442;2023-04-03T12:50:58;9.97;;;2.57;;
14121;SDS011;7139;48.114;11.442;2023-04-03T12:53:26;10.30;;;3.10;;
14121;SDS011;7139;48.114;11.442;2023-04-03T12:55:57;6.80;;;2.57;;
14121;SDS011;7139;48.114;11.442;2023-04-03T12:58:45;3.10;;;2.30;;
14121;SDS011;7139;48.114;11.442;2023-04-03T13:01:14;10.97;;;3.43;;
14121;SDS011;7139;48.114;11.442;2023-04-03T13:03:44;7.83;;;2.80;;
14121;SDS011;7139;48.114;11.442;2023-04-03T13:06:14;5.57;;;2.40;;
14121;SDS011;7139;48.114;11.442;2023-04-03T13:08:51;4.00;;;2.53;;
14121;SDS011;7139;48.114;11.442;2023-04-03T13:11:19;4.70;;;2.80;;
14121;SDS011;7139;48.114;11.442;2023-04-03T13:13:54;3.33;;;2.60;;
14121;SDS011;7139;48.114;11.442;2023-04-03T13:16:23;3.83;;;2.40;;
14121;SDS011;7139;48.114;11.442;2023-04-03T13:18:51;2.30;;;2.10;;
14121;SDS011;7139;48.114;11.442;2023-04-03T13:21:19;3.60;;;2.40;;
14121;SDS011;7139;48.114;11.442;2023-04-03T13:23:48;5.27;;;2.53;;
14121;SDS011;7139;48.114;11.442;2023-04-03T13:26:18;3.83;;;2.30;;
14121;SDS011;7139;48.114;11.442;2023-04-03T13:28:47;5.00;;;2.60;;
14121;SDS011;7139;48.114;11.442;2023-04-03T13:31:18;2.40;;;2.20;;
14121;SDS011;7139;48.114;11.442;2023-04-03T13:33:55;3.10;;;2.10;;
14121;SDS011;7139;48.114;11.442;2023-04-03T13:36:25;3.30;;;2.20;;
14121;SDS011;7139;48.114;11.442;2023-04-03T13:38:58;4.37;;;2.70;;
14121;SDS011;7139;48.114;11.442;2023-04-03T13:41:29;9.13;;;2.77;;
14121;SDS011;7139;48.114;11.442;2023-04-03T13:46:44;4.80;;;2.40;;
14121;SDS011;7139;48.114;11.442;2023-04-03T13:49:19;4.10;;;2.40;;
14121;SDS011;7139;48.114;11.442;2023-04-03T13:51:47;4.80;;;2.40;;
14121;SDS011;7139;48.114;11.442;2023-04-03T13:54:18;9.07;;;3.70;;
14121;SDS011;7139;48.114;11.442;2023-04-03T13:56:52;3.83;;;2.37;;
14121;SDS011;7139;48.114;11.442;2023-04-03T13:59:21;7.03;;;3.27;;
14121;SDS011;7139;48.114;11.442;2023-04-03T14:01:51;4.50;;;3.50;;
14121;SDS011;7139;48.114;11.442;2023-04-03T14:04:21;9.30;;;6.27;;
14121;SDS011;7139;48.114;11.442;2023-04-03T14:06:50;6.03;;;4.83;;
14121;SDS011;7139;48.114;11.442;2023-04-03T14:09:18;5.57;;;3.97;;
14121;SDS011;7139;48.114;11.442;2023-04-03T14:11:46;5.27;;;3.63;;
14121;SDS011;7139;48.114;11.442;2023-04-03T14:14:14;4.07;;;3.13;;
14121;SDS011;7139;48.114;11.442;2023-04-03T14:16:44;6.43;;;3.40;;
14121;SDS011;7139;48.114;11.442;2023-04-03T14:19:18;6.90;;;2.87;;
14121;SDS011;7139;48.114;11.442;2023-04-03T14:21:49;6.20;;;2.83;;
14121;SDS011;7139;48.114;11.442;2023-04-03T14:24:17;4.67;;;2.43;;
14121;SDS011;7139;48.114;11.442;2023-04-03T14:26:44;4.77;;;2.53;;
14121;SDS011;7139;48.114;11.442;2023-04-03T14:29:12;2.73;;;2.30;;
14121;SDS011;7139;48.114;11.442;2023-04-03T14:31:40;5.63;;;3.00;;
14121;SDS011;7139;48.114;11.442;2023-04-03T14:34:09;5.40;;;2.60;;
14121;SDS011;7139;48.114;11.442;2023-04-03T14:36:38;5.53;;;2.90;;
14121;SDS011;7139;48.114;11.442;2023-04-03T14:39:06;4.80;;;2.23;;
14121;SDS011;7139;48.114;11.442;2023-04-03T14:41:36;3.30;;;2.00;;
14121;SDS011;7139;48.114;11.442;2023-04-03T14:44:03;5.37;;;2.60;;
14121;SDS011;7139;48.114;11.442;2023-04-03T14:46:31;2.83;;;2.30;;
14121;SDS011;7139;48.114;11.442;2023-04-03T14:48:59;2.83;;;2.20;;
14121;SDS011;7139;48.114;11.442;2023-04-03T14:51:26;3.97;;;2.27;;
14121;SDS011;7139;48.114;11.442;2023-04-03T14:53:55;3.13;;;2.30;;
14121;SDS011;7139;48.114;11.442;2023-04-03T14:56:23;5.37;;;2.37;;
14121;SDS011;7139;48.114;11.442;2023-04-03T14:58:52;5.73;;;2.53;;
14121;SDS011;7139;48.114;11.442;2023-04-03T15:01:22;4.47;;;2.50;;
14121;SDS011;7139;48.114;11.442;2023-04-03T15:03:49;3.10;;;2.13;;
14121;SDS011;7139;48.114;11.442;2023-04-03T15:06:15;2.60;;;1.90;;
14121;SDS011;7139;48.114;11.442;2023-04-03T15:08:43;2.47;;;1.80;;
14121;SDS011;7139;48.114;11.442;2023-04-03T15:11:13;5.53;;;2.10;;
14121;SDS011;7139;48.114;11.442;2023-04-03T15:13:40;3.80;;;2.00;;
14121;SDS011;7139;48.114;11.442;2023-04-03T15:16:11;2.67;;;2.03;;
14121;SDS011;7139;48.114;11.442;2023-04-03T15:18:41;3.23;;;1.90;;
14121;SDS011;7139;48.114;11.442;2023-04-03T15:21:08;1.60;;;1.50;;
14121;SDS011;7139;48.114;11.442;2023-04-03T15:23:35;2.83;;;1.80;;
14121;SDS011;7139;48.114;11.442;2023-04-03T15:26:02;4.07;;;2.10;;
14121;SDS011;7139;48.114;11.442;2023-04-03T15:28:32;6.13;;;2.10;;
14121;SDS011;7139;48.114;11.442;2023-04-03T15:31:00;3.57;;;1.63;;
14121;SDS011;7139;48.114;11.442;2023-04-03T15:33:27;5.20;;;2.10;;
14121;SDS011;7139;48.114;11.442;2023-04-03T15:35:54;3.33;;;1.93;;
14121;SDS011;7139;48.114;11.442;2023-04-03T15:38:21;2.30;;;2.00;;
14121;SDS011;7139;48.114;11.442;2023-04-03T15:40:47;3.00;;;2.00;;